createdAt,value
2022-09-23T00:01:23.635Z,11.90
2022-09-23T00:04:25.908Z,11.90
2022-09-23T00:07:27.705Z,11.93
2022-09-23T00:10:32.895Z,11.92
2022-09-23T00:13:36.366Z,11.94
2022-09-23T00:16:38.333Z,11.96
2022-09-23T00:19:40.439Z,11.98
2022-09-23T00:22:42.278Z,11.98
2022-09-23T00:25:44.165Z,11.98
2022-09-23T00:28:46.697Z,11.97
2022-09-23T00:31:48.451Z,12.00
2022-09-23T00:34:51.554Z,12.02
2022-09-23T00:37:53.345Z,12.01
2022-09-23T00:40:55.231Z,12.00
2022-09-23T00:43:59.612Z,12.00
2022-09-23T00:47:01.580Z,11.99
2022-09-23T00:50:14.091Z,11.99
2022-09-23T00:53:21.181Z,11.99
2022-09-23T00:56:24.411Z,11.97
2022-09-23T00:59:29.064Z,11.97
2022-09-23T01:02:31.682Z,11.96
2022-09-23T01:05:34.410Z,11.96
2022-09-23T01:08:36.437Z,11.97
2022-09-23T01:11:40.983Z,11.97
2022-09-23T01:15:06.679Z,11.98
2022-09-23T01:18:32.771Z,11.95
2022-09-23T01:21:48.409Z,11.91
2022-09-23T01:25:16.414Z,11.84
2022-09-23T01:28:54.556Z,11.81
2022-09-23T01:32:15.165Z,11.79
2022-09-23T01:35:25.913Z,11.77
2022-09-23T01:38:46.594Z,11.75
2022-09-23T01:41:57.444Z,11.71
2022-09-23T01:45:10.997Z,11.57
2022-09-23T01:48:18.877Z,11.48
2022-09-23T01:51:23.873Z,11.54
2022-09-23T01:54:34.301Z,11.50
2022-09-23T01:57:53.420Z,11.55
2022-09-23T02:01:01.184Z,11.55
2022-09-23T02:04:31.014Z,11.59
2022-09-23T02:07:42.515Z,11.54
2022-09-23T02:10:49.185Z,11.53
2022-09-23T02:14:07.012Z,11.52
2022-09-23T02:17:13.831Z,11.53
2022-09-23T02:20:22.162Z,11.53
2022-09-23T02:23:26.675Z,11.52
2022-09-23T02:26:38.646Z,11.53
2022-09-23T02:29:49.418Z,11.52
2022-09-23T02:33:24.608Z,11.36
2022-09-23T02:36:46.020Z,11.52
2022-09-23T02:40:09.097Z,11.53
2022-09-23T02:43:19.898Z,11.55
2022-09-23T02:46:23.242Z,11.58
2022-09-23T02:49:28.245Z,11.56
2022-09-23T02:52:30.090Z,11.58
2022-09-23T02:55:32.428Z,11.55
2022-09-23T02:58:34.633Z,11.59
2022-09-23T03:02:01.215Z,11.56
2022-09-23T03:05:30.290Z,11.54
2022-09-23T03:08:51.186Z,11.48
2022-09-23T03:12:15.849Z,11.47
2022-09-23T03:15:23.342Z,11.42
2022-09-23T03:18:46.642Z,11.45
2022-09-23T03:21:56.824Z,11.25
2022-09-23T03:25:07.168Z,11.41
2022-09-23T03:28:09.987Z,11.41
2022-09-23T03:31:13.255Z,11.39
2022-09-23T03:34:22.842Z,11.36
2022-09-23T03:37:36.021Z,11.37
2022-09-23T03:40:44.085Z,11.38
2022-09-23T03:43:46.432Z,11.37
2022-09-23T03:46:51.158Z,11.34
2022-09-23T03:49:54.058Z,11.31
2022-09-23T03:52:55.810Z,11.23
2022-09-23T03:55:57.535Z,11.24
2022-09-23T03:58:59.402Z,11.24
2022-09-23T04:02:02.644Z,11.25
2022-09-23T04:05:05.274Z,11.23
2022-09-23T04:08:07.117Z,11.22
2022-09-23T04:11:08.959Z,11.25
2022-09-23T04:14:12.240Z,11.18
2022-09-23T04:17:14.260Z,11.22
2022-09-23T04:20:17.339Z,11.25
2022-09-23T04:23:19.188Z,11.29
2022-09-23T04:26:21.002Z,11.24
2022-09-23T04:29:24.213Z,11.31
2022-09-23T04:32:26.138Z,11.34
2022-09-23T04:35:27.967Z,11.35
2022-09-23T04:38:29.733Z,11.29
2022-09-23T04:41:31.809Z,11.35
2022-09-23T04:44:34.889Z,11.44
2022-09-23T04:47:37.398Z,11.50
2022-09-23T04:50:39.433Z,11.53
2022-09-23T04:53:43.432Z,11.56
2022-09-23T04:56:45.230Z,11.60
2022-09-23T04:59:47.335Z,11.64
2022-09-23T05:02:50.586Z,11.65
2022-09-23T05:05:53.009Z,11.67
2022-09-23T05:08:56.244Z,11.67
2022-09-23T05:11:58.358Z,11.69
2022-09-23T05:15:00.671Z,11.72
2022-09-23T05:18:02.620Z,11.72
2022-09-23T05:21:04.688Z,11.70
2022-09-23T05:24:07.475Z,11.72
2022-09-23T05:27:09.394Z,11.71
2022-09-23T05:30:11.793Z,11.73
2022-09-23T05:33:14.213Z,11.76
2022-09-23T05:36:19.974Z,11.75
2022-09-23T05:39:21.851Z,11.82
2022-09-23T05:42:24.173Z,11.85
2022-09-23T05:45:27.390Z,11.88
2022-09-23T05:48:34.141Z,11.93
2022-09-23T05:51:35.989Z,11.96
2022-09-23T05:54:39.716Z,11.99
2022-09-23T05:57:41.455Z,12.02
2022-09-23T06:00:44.207Z,12.03
2022-09-23T06:03:49.875Z,12.01
2022-09-23T06:06:51.645Z,12.02
2022-09-23T06:09:54.285Z,12.02
2022-09-23T06:12:56.162Z,12.05
2022-09-23T06:15:58.319Z,12.05
2022-09-23T06:19:06.217Z,12.06
2022-09-23T06:22:10.888Z,12.09
2022-09-23T06:25:13.040Z,12.10
2022-09-23T06:28:15.712Z,12.12
2022-09-23T06:31:17.917Z,12.15
2022-09-23T06:34:21.132Z,12.18
2022-09-23T06:37:24.283Z,12.15
2022-09-23T06:40:26.718Z,12.16
2022-09-23T06:43:29.213Z,12.14
2022-09-23T06:46:31.871Z,12.17
2022-09-23T06:49:33.971Z,12.12
2022-09-23T06:52:35.768Z,12.17
2022-09-23T06:55:37.712Z,12.15
2022-09-23T06:58:40.507Z,12.15
2022-09-23T07:01:42.532Z,12.12
2022-09-23T07:04:44.862Z,12.13
2022-09-23T07:07:46.584Z,12.14
2022-09-23T07:10:53.841Z,12.17
2022-09-23T07:13:57.247Z,12.26
2022-09-23T07:16:59.985Z,12.24
2022-09-23T07:20:02.193Z,12.29
2022-09-23T07:23:04.839Z,12.33
2022-09-23T07:26:08.770Z,12.36
2022-09-23T07:29:13.179Z,12.38
2022-09-23T07:32:15.997Z,12.43
2022-09-23T07:35:19.433Z,12.45
2022-09-23T07:38:22.414Z,12.22
2022-09-23T07:41:26.041Z,12.28
2022-09-23T07:44:29.237Z,12.30
2022-09-23T07:47:31.600Z,12.41
2022-09-23T07:50:33.844Z,12.50
2022-09-23T07:53:37.076Z,12.61
2022-09-23T07:56:41.843Z,12.67
2022-09-23T07:59:44.193Z,12.65
2022-09-23T08:02:49.588Z,12.72
2022-09-23T08:05:54.644Z,12.75
2022-09-23T08:09:00.812Z,12.76
2022-09-23T08:12:03.598Z,12.85
2022-09-23T08:15:06.136Z,12.92
2022-09-23T08:18:09.962Z,13.02
2022-09-23T08:21:12.693Z,13.07
2022-09-23T08:24:17.790Z,13.09
2022-09-23T08:27:19.937Z,13.12
2022-09-23T08:30:22.070Z,13.19
2022-09-23T08:33:24.529Z,13.26
2022-09-23T08:36:27.529Z,13.35
2022-09-23T08:39:29.332Z,13.45
2022-09-23T08:42:35.880Z,13.44
2022-09-23T08:45:40.539Z,13.47
2022-09-23T08:48:47.623Z,13.49
2022-09-23T08:51:51.330Z,13.56
2022-09-23T08:54:55.669Z,13.57
2022-09-23T08:58:25.899Z,13.54
2022-09-23T09:01:48.235Z,13.60
2022-09-23T09:05:06.094Z,13.62
2022-09-23T09:08:11.840Z,13.65
2022-09-23T09:11:16.805Z,13.69
2022-09-23T09:14:28.854Z,13.78
2022-09-23T09:17:44.382Z,13.77
2022-09-23T09:21:11.633Z,13.88
2022-09-23T09:24:33.842Z,13.95
2022-09-23T09:27:40.731Z,14.05
2022-09-23T09:30:48.315Z,14.05
2022-09-23T09:34:06.303Z,14.19
2022-09-23T09:37:18.221Z,14.29
2022-09-23T09:40:21.288Z,14.36
2022-09-23T09:43:25.530Z,14.44
2022-09-23T09:46:47.321Z,14.42
2022-09-23T09:50:14.202Z,14.54
2022-09-23T09:53:27.806Z,14.57
2022-09-23T09:56:34.994Z,14.61
2022-09-23T09:59:42.075Z,14.59
2022-09-23T10:02:47.815Z,14.65
2022-09-23T10:05:53.849Z,14.57
2022-09-23T10:09:10.629Z,14.60
2022-09-23T10:12:18.525Z,14.67
2022-09-23T10:15:44.462Z,14.76
2022-09-23T10:18:46.876Z,14.77
2022-09-23T10:21:57.010Z,14.79
2022-09-23T10:25:03.760Z,14.85
2022-09-23T10:28:41.726Z,14.94
2022-09-23T10:31:45.457Z,14.98
2022-09-23T10:34:52.397Z,14.98
2022-09-23T10:38:00.392Z,14.87
2022-09-23T10:41:21.223Z,14.78
2022-09-23T10:45:12.286Z,14.83
2022-09-23T10:48:36.329Z,14.80
2022-09-23T10:52:04.722Z,14.82
2022-09-23T10:55:42.901Z,14.85
2022-09-23T10:59:22.357Z,14.98
2022-09-23T11:02:50.510Z,15.01
2022-09-23T11:05:55.238Z,14.98
2022-09-23T11:09:23.266Z,14.86
2022-09-23T11:12:32.007Z,14.90
2022-09-23T11:15:52.530Z,14.90
2022-09-23T11:19:16.005Z,14.94
2022-09-23T11:22:36.236Z,14.85
2022-09-23T11:26:23.740Z,14.86
2022-09-23T11:29:36.503Z,15.00
2022-09-23T11:33:04.790Z,15.11
2022-09-23T11:36:10.675Z,15.13
2022-09-23T11:39:23.989Z,15.18
2022-09-23T11:42:31.582Z,15.12
2022-09-23T11:45:41.982Z,15.07
2022-09-23T11:48:57.862Z,15.00
2022-09-23T11:52:08.860Z,14.99
2022-09-23T11:55:31.932Z,14.95
2022-09-23T11:58:50.014Z,14.93
2022-09-23T12:02:15.781Z,14.97
2022-09-23T12:05:26.882Z,15.02
2022-09-23T12:08:34.475Z,15.06
2022-09-23T12:11:50.579Z,15.19
2022-09-23T12:15:14.318Z,15.31
2022-09-23T12:19:08.536Z,15.35
2022-09-23T12:22:30.889Z,15.35
2022-09-23T12:25:47.264Z,15.44
2022-09-23T12:28:59.228Z,15.60
2022-09-23T12:32:09.882Z,15.68
2022-09-23T12:35:24.101Z,15.70
2022-09-23T12:38:35.197Z,15.75
2022-09-23T12:41:41.430Z,15.66
2022-09-23T12:44:55.130Z,15.63
2022-09-23T12:48:19.668Z,15.58
2022-09-23T12:51:44.729Z,15.53
2022-09-23T12:54:50.132Z,15.58
2022-09-23T12:57:52.046Z,15.58
2022-09-23T13:01:10.383Z,15.50
2022-09-23T13:04:55.042Z,15.49
2022-09-23T13:08:17.755Z,15.49
2022-09-23T13:11:28.041Z,15.46
2022-09-23T13:14:35.711Z,15.46
2022-09-23T13:17:40.006Z,15.37
2022-09-23T13:20:43.168Z,15.32
2022-09-23T13:24:12.851Z,15.25
2022-09-23T13:27:26.669Z,15.22
2022-09-23T13:30:28.893Z,15.21
2022-09-23T13:33:48.324Z,15.22
2022-09-23T13:36:50.400Z,15.18
2022-09-23T13:40:07.901Z,15.16
2022-09-23T13:43:22.131Z,15.12
2022-09-23T13:46:28.117Z,15.08
2022-09-23T13:49:34.123Z,15.03
2022-09-23T13:52:36.287Z,15.01
2022-09-23T13:55:39.595Z,14.96
2022-09-23T13:58:43.484Z,14.89
2022-09-23T14:01:47.051Z,14.83
2022-09-23T14:04:49.608Z,14.80
2022-09-23T14:07:52.836Z,14.76
2022-09-23T14:10:55.942Z,14.73
2022-09-23T14:14:00.059Z,14.70
2022-09-23T14:17:02.601Z,14.65
2022-09-23T14:20:05.629Z,14.58
2022-09-23T14:23:12.070Z,14.53
2022-09-23T14:26:14.844Z,14.48
2022-09-23T14:29:18.234Z,14.36
2022-09-23T14:32:27.126Z,14.36
2022-09-23T14:35:42.896Z,14.30
2022-09-23T14:38:50.775Z,14.29
2022-09-23T14:41:52.945Z,14.21
2022-09-23T14:44:56.432Z,14.15
2022-09-23T14:48:22.793Z,14.09
2022-09-23T14:51:47.434Z,14.03
2022-09-23T14:54:52.117Z,13.93
2022-09-23T14:58:12.402Z,13.97
2022-09-23T15:01:29.522Z,14.01
2022-09-23T15:04:33.356Z,13.94
2022-09-23T15:07:38.094Z,13.92
2022-09-23T15:10:42.816Z,13.89
2022-09-23T15:13:49.707Z,13.85
2022-09-23T15:16:53.145Z,13.80
2022-09-23T15:19:59.874Z,13.75
2022-09-23T15:23:01.887Z,13.67
2022-09-23T15:26:12.810Z,13.66
2022-09-23T15:29:17.816Z,13.59
2022-09-23T15:32:22.525Z,13.55
2022-09-23T15:35:27.189Z,13.50
2022-09-23T15:38:32.439Z,13.48
2022-09-23T15:41:34.552Z,13.46
2022-09-23T15:44:40.003Z,13.42
2022-09-23T15:47:44.395Z,13.38
2022-09-23T15:50:49.702Z,13.33
2022-09-23T15:53:52.849Z,13.27
2022-09-23T15:56:56.326Z,13.24
2022-09-23T16:00:01.694Z,13.18
2022-09-23T16:03:31.964Z,13.08
2022-09-23T16:06:36.262Z,13.01
2022-09-23T16:09:40.226Z,12.93
2022-09-23T16:12:44.806Z,12.86
2022-09-23T16:15:47.560Z,12.81
2022-09-23T16:18:52.291Z,12.75
2022-09-23T16:21:55.824Z,12.63
2022-09-23T16:24:58.118Z,12.55
2022-09-23T16:28:00.343Z,12.38
2022-09-23T16:31:04.828Z,12.32
2022-09-23T16:34:09.695Z,12.27
2022-09-23T16:37:20.615Z,12.25
2022-09-23T16:40:24.957Z,12.18
2022-09-23T16:43:32.845Z,12.13
2022-09-23T16:46:36.702Z,12.06
2022-09-23T16:49:39.924Z,12.00
2022-09-23T16:52:42.431Z,11.96
2022-09-23T16:55:47.330Z,11.86
2022-09-23T16:58:53.852Z,11.84
2022-09-23T17:02:15.804Z,11.81
2022-09-23T17:05:19.877Z,11.84
2022-09-23T17:08:23.369Z,11.85
2022-09-23T17:11:25.231Z,11.84
2022-09-23T17:14:31.199Z,11.88
2022-09-23T17:17:39.727Z,11.86
2022-09-23T17:20:43.775Z,11.88
2022-09-23T17:23:47.246Z,11.90
2022-09-23T17:26:52.764Z,11.92
2022-09-23T17:29:56.014Z,11.94
2022-09-23T17:32:58.047Z,11.93
2022-09-23T17:36:10.150Z,11.93
2022-09-23T17:39:12.860Z,11.93
2022-09-23T17:42:15.918Z,11.95
2022-09-23T17:45:23.060Z,12.00
2022-09-23T17:48:28.374Z,12.02
2022-09-23T17:51:31.388Z,12.02
2022-09-23T17:54:36.740Z,12.00
2022-09-23T17:57:39.862Z,11.93
2022-09-23T18:00:51.323Z,11.91
2022-09-23T18:04:00.153Z,11.87
2022-09-23T18:07:13.696Z,11.86
2022-09-23T18:10:18.513Z,11.86
2022-09-23T18:13:23.827Z,11.85
2022-09-23T18:19:54.291Z,11.76
2022-09-23T18:23:05.304Z,11.78
2022-09-23T18:26:15.112Z,11.79
2022-09-23T18:29:23.714Z,11.76
2022-09-23T18:32:29.526Z,11.71
2022-09-23T18:35:33.754Z,11.71
2022-09-23T18:38:40.852Z,11.65
2022-09-23T18:41:43.771Z,11.59
2022-09-23T18:44:46.415Z,11.54
2022-09-23T18:48:11.360Z,11.53
2022-09-23T18:51:25.881Z,11.46
2022-09-23T18:54:29.501Z,11.36
2022-09-23T18:57:32.522Z,11.27
2022-09-23T19:00:36.134Z,11.20
2022-09-23T19:03:38.616Z,11.14
2022-09-23T19:06:42.708Z,11.03
2022-09-23T19:09:46.710Z,10.93
2022-09-23T19:12:49.334Z,10.86
2022-09-23T19:15:51.517Z,10.76
2022-09-23T19:18:55.215Z,10.66
2022-09-23T19:22:01.484Z,10.59
2022-09-23T19:25:07.159Z,10.51
2022-09-23T19:28:11.888Z,10.38
2022-09-23T19:31:17.461Z,10.34
2022-09-23T19:34:25.736Z,10.26
2022-09-23T19:37:29.098Z,10.20
2022-09-23T19:40:32.378Z,10.13
2022-09-23T19:43:37.631Z,10.09
2022-09-23T19:46:44.607Z,10.03
2022-09-23T19:49:48.735Z,9.92
2022-09-23T19:52:53.897Z,9.77
2022-09-23T19:55:56.462Z,9.73
2022-09-23T19:58:59.572Z,9.67
2022-09-23T20:02:01.599Z,9.64
2022-09-23T20:05:03.741Z,9.60
2022-09-23T20:08:05.731Z,9.58
2022-09-23T20:11:28.091Z,9.51
2022-09-23T20:14:31.318Z,9.48
2022-09-23T20:17:33.067Z,9.38
2022-09-23T20:20:34.909Z,9.36
2022-09-23T20:23:36.927Z,9.35
2022-09-23T20:26:57.214Z,9.35
2022-09-23T20:30:00.471Z,9.32
2022-09-23T20:33:02.282Z,9.34
2022-09-23T20:36:05.559Z,9.35
2022-09-23T20:39:07.643Z,9.37
2022-09-23T20:42:09.405Z,9.40
2022-09-23T20:45:11.319Z,9.42
2022-09-23T20:48:13.163Z,9.44
2022-09-23T20:51:15.445Z,9.50
2022-09-23T20:54:20.416Z,9.51
2022-09-23T20:57:22.289Z,9.57
2022-09-23T21:00:24.117Z,9.60
2022-09-23T21:03:29.302Z,9.63
2022-09-23T21:06:31.226Z,9.66
2022-09-23T21:09:33.010Z,9.70
2022-09-23T21:12:35.253Z,9.74
2022-09-23T21:15:37.134Z,9.73
2022-09-23T21:18:39.123Z,9.79
2022-09-23T21:21:40.916Z,9.79
2022-09-23T21:25:25.867Z,9.82
2022-09-23T21:28:04.595Z,9.82
2022-09-23T21:31:08.816Z,9.84
2022-09-23T21:34:11.453Z,9.85
2022-09-23T21:37:13.343Z,9.87
2022-09-23T21:40:33.916Z,9.90
2022-09-23T21:43:38.559Z,9.90
2022-09-23T21:46:40.325Z,9.93
2022-09-23T21:49:44.835Z,9.95
2022-09-23T21:52:51.799Z,9.95
2022-09-23T21:55:54.127Z,9.96
2022-09-23T21:58:58.344Z,9.98
2022-09-23T22:02:00.176Z,9.96
2022-09-23T22:05:01.963Z,9.93
2022-09-23T22:08:03.852Z,9.93
2022-09-23T22:11:33.558Z,9.94
2022-09-23T22:14:36.183Z,9.94
2022-09-23T22:17:40.231Z,9.90
2022-09-23T22:20:43.626Z,9.92
2022-09-23T22:23:46.451Z,9.94
2022-09-23T22:26:48.314Z,9.95
2022-09-23T22:30:08.707Z,9.99
2022-09-23T22:33:10.462Z,10.01
2022-09-23T22:36:12.894Z,10.02
2022-09-23T22:39:14.849Z,10.04
2022-09-23T22:42:16.658Z,10.03
2022-09-23T22:45:18.462Z,10.02
2022-09-23T22:48:21.075Z,10.02
2022-09-23T22:51:22.887Z,10.00
2022-09-23T22:54:29.112Z,9.99
2022-09-23T22:57:34.684Z,10.03
2022-09-23T23:00:38.668Z,10.04
2022-09-23T23:03:41.774Z,10.07
2022-09-23T23:06:43.670Z,10.09
2022-09-23T23:09:45.429Z,10.12
2022-09-23T23:12:47.441Z,10.13
2022-09-23T23:15:49.421Z,10.15
2022-09-23T23:18:51.185Z,10.14
2022-09-23T23:21:53.051Z,10.14
2022-09-23T23:24:55.080Z,10.09
2022-09-23T23:27:57.929Z,10.04
2022-09-23T23:31:03.650Z,10.00
2022-09-23T23:34:07.180Z,10.00
2022-09-23T23:37:09.560Z,9.97
2022-09-23T23:40:11.428Z,9.94
2022-09-23T23:43:13.462Z,9.92
2022-09-23T23:46:15.792Z,9.87
2022-09-23T23:49:17.599Z,9.82
2022-09-23T23:52:19.322Z,9.78
2022-09-23T23:55:21.127Z,9.72
2022-09-23T23:58:22.944Z,9.71
